sensor_id;sensor_type;location;lat;lon;timestamp;temperature;humidity
44695;DHT22;32845;59.422;17.930;2023-07-02T00:00:45;15.50;99.90
44695;DHT22;32845;59.422;17.930;2023-07-02T00:05:15;15.50;99.90
44695;DHT22;32845;59.422;17.930;2023-07-02T00:09:47;15.40;99.90
44695;DHT22;32845;59.422;17.930;2023-07-02T00:14:28;15.40;99.90
44695;DHT22;32845;59.422;17.930;2023-07-02T00:18:59;15.40;99.90
44695;DHT22;32845;59.422;17.930;2023-07-02T00:23:30;15.30;99.90
44695;DHT22;32845;59.422;17.930;2023-07-02T00:28:01;15.20;99.90
44695;DHT22;32845;59.422;17.930;2023-07-02T00:32:31;15.20;99.90
44695;DHT22;32845;59.422;17.930;2023-07-02T00:37:02;15.10;99.90
44695;DHT22;32845;59.422;17.930;2023-07-02T00:41:38;15.10;99.90
44695;DHT22;32845;59.422;17.930;2023-07-02T00:46:17;15.00;99.90
44695;DHT22;32845;59.422;17.930;2023-07-02T00:50:48;15.00;99.90
44695;DHT22;32845;59.422;17.930;2023-07-02T00:55:18;14.90;99.90
44695;DHT22;32845;59.422;17.930;2023-07-02T00:59:49;14.80;99.90
44695;DHT22;32845;59.422;17.930;2023-07-02T01:04:23;14.70;99.90
44695;DHT22;32845;59.422;17.930;2023-07-02T01:08:59;14.70;99.90
44695;DHT22;32845;59.422;17.930;2023-07-02T01:13:30;14.70;99.90
44695;DHT22;32845;59.422;17.930;2023-07-02T01:18:01;14.70;99.90
44695;DHT22;32845;59.422;17.930;2023-07-02T01:22:34;14.70;99.90
44695;DHT22;32845;59.422;17.930;2023-07-02T01:27:05;14.80;99.90
44695;DHT22;32845;59.422;17.930;2023-07-02T01:31:41;14.80;99.90
44695;DHT22;32845;59.422;17.930;2023-07-02T01:36:11;14.80;99.90
44695;DHT22;32845;59.422;17.930;2023-07-02T01:40:42;14.90;99.90
44695;DHT22;32845;59.422;17.930;2023-07-02T01:45:13;14.90;99.90
44695;DHT22;32845;59.422;17.930;2023-07-02T01:49:43;14.90;99.90
44695;DHT22;32845;59.422;17.930;2023-07-02T01:54:14;15.00;99.90
44695;DHT22;32845;59.422;17.930;2023-07-02T01:58:44;15.00;99.90
44695;DHT22;32845;59.422;17.930;2023-07-02T02:03:25;15.10;99.90
44695;DHT22;32845;59.422;17.930;2023-07-02T02:07:56;15.10;99.90
44695;DHT22;32845;59.422;17.930;2023-07-02T02:12:26;15.10;99.90
44695;DHT22;32845;59.422;17.930;2023-07-02T02:16:58;15.20;99.90
44695;DHT22;32845;59.422;17.930;2023-07-02T02:21:30;15.20;99.90
44695;DHT22;32845;59.422;17.930;2023-07-02T02:26:00;15.30;99.90
44695;DHT22;32845;59.422;17.930;2023-07-02T02:30:31;15.30;99.90
44695;DHT22;32845;59.422;17.930;2023-07-02T02:35:01;15.30;99.90
44695;DHT22;32845;59.422;17.930;2023-07-02T02:39:32;15.40;99.90
44695;DHT22;32845;59.422;17.930;2023-07-02T02:44:08;15.40;99.90
44695;DHT22;32845;59.422;17.930;2023-07-02T02:48:38;15.40;99.90
44695;DHT22;32845;59.422;17.930;2023-07-02T02:53:12;15.40;99.90
44695;DHT22;32845;59.422;17.930;2023-07-02T02:57:42;15.40;99.90
44695;DHT22;32845;59.422;17.930;2023-07-02T03:02:18;15.50;99.90
44695;DHT22;32845;59.422;17.930;2023-07-02T03:06:49;15.50;99.90
44695;DHT22;32845;59.422;17.930;2023-07-02T03:11:19;15.50;99.90
44695;DHT22;32845;59.422;17.930;2023-07-02T03:15:50;15.60;99.90
44695;DHT22;32845;59.422;17.930;2023-07-02T03:20:21;15.70;99.90
44695;DHT22;32845;59.422;17.930;2023-07-02T03:24:51;15.70;99.90
44695;DHT22;32845;59.422;17.930;2023-07-02T03:29:22;15.80;99.90
44695;DHT22;32845;59.422;17.930;2023-07-02T03:33:58;15.90;99.90
44695;DHT22;32845;59.422;17.930;2023-07-02T03:38:28;16.00;99.90
44695;DHT22;32845;59.422;17.930;2023-07-02T03:43:08;16.00;99.90
44695;DHT22;32845;59.422;17.930;2023-07-02T03:47:38;16.10;99.90
44695;DHT22;32845;59.422;17.930;2023-07-02T03:52:14;16.10;99.90
44695;DHT22;32845;59.422;17.930;2023-07-02T03:56:44;16.20;99.90
44695;DHT22;32845;59.422;17.930;2023-07-02T04:01:15;16.20;99.90
44695;DHT22;32845;59.422;17.930;2023-07-02T04:05:46;16.20;99.90
44695;DHT22;32845;59.422;17.930;2023-07-02T04:10:16;16.30;99.90
44695;DHT22;32845;59.422;17.930;2023-07-02T04:14:47;16.30;99.90
44695;DHT22;32845;59.422;17.930;2023-07-02T04:19:17;16.30;99.90
44695;DHT22;32845;59.422;17.930;2023-07-02T04:23:48;16.40;99.90
44695;DHT22;32845;59.422;17.930;2023-07-02T04:28:18;16.40;99.90
44695;DHT22;32845;59.422;17.930;2023-07-02T04:32:49;16.40;99.90
44695;DHT22;32845;59.422;17.930;2023-07-02T04:37:20;16.50;99.90
44695;DHT22;32845;59.422;17.930;2023-07-02T04:41:52;16.50;99.90
44695;DHT22;32845;59.422;17.930;2023-07-02T04:46:23;16.60;99.90
44695;DHT22;32845;59.422;17.930;2023-07-02T04:50:53;16.70;99.90
44695;DHT22;32845;59.422;17.930;2023-07-02T04:55:24;16.70;99.90
44695;DHT22;32845;59.422;17.930;2023-07-02T04:59:54;16.80;99.90
44695;DHT22;32845;59.422;17.930;2023-07-02T05:04:25;16.90;99.90
44695;DHT22;32845;59.422;17.930;2023-07-02T05:08:56;16.90;99.90
44695;DHT22;32845;59.422;17.930;2023-07-02T05:13:31;17.00;99.90
44695;DHT22;32845;59.422;17.930;2023-07-02T05:18:02;17.00;99.90
44695;DHT22;32845;59.422;17.930;2023-07-02T05:22:32;17.10;99.90
44695;DHT22;32845;59.422;17.930;2023-07-02T05:27:04;17.10;99.90
44695;DHT22;32845;59.422;17.930;2023-07-02T05:31:39;17.20;99.90
44695;DHT22;32845;59.422;17.930;2023-07-02T05:36:10;17.20;99.90
44695;DHT22;32845;59.422;17.930;2023-07-02T05:40:45;17.30;99.90
44695;DHT22;32845;59.422;17.930;2023-07-02T05:45:16;17.40;99.90
44695;DHT22;32845;59.422;17.930;2023-07-02T05:49:46;17.40;99.90
44695;DHT22;32845;59.422;17.930;2023-07-02T05:54:17;17.50;99.90
44695;DHT22;32845;59.422;17.930;2023-07-02T05:58:48;17.60;99.90
44695;DHT22;32845;59.422;17.930;2023-07-02T06:03:19;17.60;99.90
44695;DHT22;32845;59.422;17.930;2023-07-02T06:07:50;17.70;99.90
44695;DHT22;32845;59.422;17.930;2023-07-02T06:12:26;17.70;99.90
44695;DHT22;32845;59.422;17.930;2023-07-02T06:16:57;17.80;99.90
44695;DHT22;32845;59.422;17.930;2023-07-02T06:21:32;17.80;99.90
44695;DHT22;32845;59.422;17.930;2023-07-02T06:26:03;17.80;99.90
44695;DHT22;32845;59.422;17.930;2023-07-02T06:30:39;17.80;99.90
44695;DHT22;32845;59.422;17.930;2023-07-02T06:35:09;17.80;99.90
44695;DHT22;32845;59.422;17.930;2023-07-02T06:39:40;17.80;99.90
44695;DHT22;32845;59.422;17.930;2023-07-02T06:44:10;17.80;99.90
44695;DHT22;32845;59.422;17.930;2023-07-02T06:48:41;17.90;99.90
44695;DHT22;32845;59.422;17.930;2023-07-02T06:53:16;17.90;99.90
44695;DHT22;32845;59.422;17.930;2023-07-02T06:57:47;17.90;99.90
44695;DHT22;32845;59.422;17.930;2023-07-02T07:02:23;17.90;99.90
44695;DHT22;32845;59.422;17.930;2023-07-02T07:06:53;17.90;99.90
44695;DHT22;32845;59.422;17.930;2023-07-02T07:11:25;17.90;99.90
44695;DHT22;32845;59.422;17.930;2023-07-02T07:15:56;17.90;99.90
44695;DHT22;32845;59.422;17.930;2023-07-02T07:20:26;17.90;99.90
44695;DHT22;32845;59.422;17.930;2023-07-02T07:24:57;17.90;99.90
44695;DHT22;32845;59.422;17.930;2023-07-02T07:29:27;17.90;99.90
44695;DHT22;32845;59.422;17.930;2023-07-02T07:34:08;17.90;99.90
44695;DHT22;32845;59.422;17.930;2023-07-02T07:38:39;17.90;99.90
44695;DHT22;32845;59.422;17.930;2023-07-02T07:43:15;17.90;99.90
44695;DHT22;32845;59.422;17.930;2023-07-02T07:47:45;17.90;99.90
44695;DHT22;32845;59.422;17.930;2023-07-02T07:52:16;17.90;99.90
44695;DHT22;32845;59.422;17.930;2023-07-02T07:56:46;17.90;99.90
44695;DHT22;32845;59.422;17.930;2023-07-02T08:01:25;17.90;99.90
44695;DHT22;32845;59.422;17.930;2023-07-02T08:05:56;17.90;99.90
44695;DHT22;32845;59.422;17.930;2023-07-02T08:10:27;17.90;99.90
44695;DHT22;32845;59.422;17.930;2023-07-02T08:14:58;17.90;99.90
44695;DHT22;32845;59.422;17.930;2023-07-02T08:19:28;17.80;99.90
44695;DHT22;32845;59.422;17.930;2023-07-02T08:23:59;17.80;99.90
44695;DHT22;32845;59.422;17.930;2023-07-02T08:28:29;17.70;99.90
44695;DHT22;32845;59.422;17.930;2023-07-02T08:33:10;17.50;99.90
44695;DHT22;32845;59.422;17.930;2023-07-02T08:37:40;17.40;99.90
44695;DHT22;32845;59.422;17.930;2023-07-02T08:42:11;17.20;99.90
44695;DHT22;32845;59.422;17.930;2023-07-02T08:46:42;17.10;99.90
44695;DHT22;32845;59.422;17.930;2023-07-02T08:51:13;17.00;99.90
44695;DHT22;32845;59.422;17.930;2023-07-02T08:55:43;17.00;99.90
44695;DHT22;32845;59.422;17.930;2023-07-02T09:00:15;16.90;99.90
44695;DHT22;32845;59.422;17.930;2023-07-02T09:04:45;16.80;99.90
44695;DHT22;32845;59.422;17.930;2023-07-02T09:09:16;16.80;99.90
44695;DHT22;32845;59.422;17.930;2023-07-02T09:13:48;16.70;99.90
44695;DHT22;32845;59.422;17.930;2023-07-02T09:18:26;16.60;99.90
44695;DHT22;32845;59.422;17.930;2023-07-02T09:23:46;16.50;99.90
44695;DHT22;32845;59.422;17.930;2023-07-02T09:28:18;16.50;99.90
44695;DHT22;32845;59.422;17.930;2023-07-02T09:33:06;16.40;99.90
44695;DHT22;32845;59.422;17.930;2023-07-02T09:37:38;16.30;99.90
44695;DHT22;32845;59.422;17.930;2023-07-02T09:42:10;16.40;99.90
44695;DHT22;32845;59.422;17.930;2023-07-02T09:47:06;16.40;99.90
44695;DHT22;32845;59.422;17.930;2023-07-02T09:51:42;16.40;99.90
44695;DHT22;32845;59.422;17.930;2023-07-02T09:56:13;16.50;99.90
44695;DHT22;32845;59.422;17.930;2023-07-02T10:00:44;16.60;99.90
44695;DHT22;32845;59.422;17.930;2023-07-02T10:05:28;16.90;99.90
44695;DHT22;32845;59.422;17.930;2023-07-02T10:10:00;17.10;99.90
44695;DHT22;32845;59.422;17.930;2023-07-02T10:14:41;17.20;99.90
44695;DHT22;32845;59.422;17.930;2023-07-02T10:19:12;17.30;99.90
44695;DHT22;32845;59.422;17.930;2023-07-02T10:23:48;17.30;99.90
44695;DHT22;32845;59.422;17.930;2023-07-02T10:28:20;17.30;99.90
44695;DHT22;32845;59.422;17.930;2023-07-02T10:33:11;17.30;99.90
44695;DHT22;32845;59.422;17.930;2023-07-02T10:37:42;17.20;99.90
44695;DHT22;32845;59.422;17.930;2023-07-02T10:42:33;17.10;99.90
44695;DHT22;32845;59.422;17.930;2023-07-02T10:47:04;17.10;99.90
44695;DHT22;32845;59.422;17.930;2023-07-02T10:52:00;17.10;99.90
44695;DHT22;32845;59.422;17.930;2023-07-02T10:56:31;17.00;99.90
44695;DHT22;32845;59.422;17.930;2023-07-02T11:01:07;17.00;99.90
44695;DHT22;32845;59.422;17.930;2023-07-02T11:05:38;17.00;99.90
44695;DHT22;32845;59.422;17.930;2023-07-02T11:10:10;17.10;99.90
44695;DHT22;32845;59.422;17.930;2023-07-02T11:14:40;17.20;99.90
44695;DHT22;32845;59.422;17.930;2023-07-02T11:19:11;17.30;99.90
44695;DHT22;32845;59.422;17.930;2023-07-02T11:23:42;17.30;99.90
44695;DHT22;32845;59.422;17.930;2023-07-02T11:28:13;17.30;99.90
44695;DHT22;32845;59.422;17.930;2023-07-02T11:32:54;17.20;99.90
44695;DHT22;32845;59.422;17.930;2023-07-02T11:37:25;17.10;99.90
44695;DHT22;32845;59.422;17.930;2023-07-02T11:41:56;17.10;99.90
44695;DHT22;32845;59.422;17.930;2023-07-02T11:46:27;17.10;99.90
44695;DHT22;32845;59.422;17.930;2023-07-02T11:51:06;17.10;99.90
44695;DHT22;32845;59.422;17.930;2023-07-02T11:55:37;17.10;99.90
44695;DHT22;32845;59.422;17.930;2023-07-02T12:00:08;17.00;99.90
44695;DHT22;32845;59.422;17.930;2023-07-02T12:04:39;17.00;99.90
44695;DHT22;32845;59.422;17.930;2023-07-02T12:09:09;16.90;99.90
44695;DHT22;32845;59.422;17.930;2023-07-02T12:13:40;16.90;99.90
44695;DHT22;32845;59.422;17.930;2023-07-02T12:18:11;16.90;99.90
44695;DHT22;32845;59.422;17.930;2023-07-02T12:22:46;16.80;99.90
44695;DHT22;32845;59.422;17.930;2023-07-02T12:27:17;16.80;99.90
44695;DHT22;32845;59.422;17.930;2023-07-02T12:31:48;16.80;99.90
44695;DHT22;32845;59.422;17.930;2023-07-02T12:36:18;16.80;99.90
44695;DHT22;32845;59.422;17.930;2023-07-02T12:40:54;16.80;99.90
44695;DHT22;32845;59.422;17.930;2023-07-02T12:45:25;16.80;99.90
44695;DHT22;32845;59.422;17.930;2023-07-02T12:49:55;16.90;99.90
44695;DHT22;32845;59.422;17.930;2023-07-02T12:54:26;16.90;99.90
44695;DHT22;32845;59.422;17.930;2023-07-02T12:58:57;16.90;99.90
44695;DHT22;32845;59.422;17.930;2023-07-02T13:03:30;16.90;99.90
44695;DHT22;32845;59.422;17.930;2023-07-02T13:08:00;17.00;99.90
44695;DHT22;32845;59.422;17.930;2023-07-02T13:12:31;17.00;99.90
44695;DHT22;32845;59.422;17.930;2023-07-02T13:17:02;17.00;99.90
44695;DHT22;32845;59.422;17.930;2023-07-02T13:21:35;17.00;99.90
44695;DHT22;32845;59.422;17.930;2023-07-02T13:26:06;16.90;99.90
44695;DHT22;32845;59.422;17.930;2023-07-02T13:30:37;16.90;99.90
44695;DHT22;32845;59.422;17.930;2023-07-02T13:35:07;16.90;99.90
44695;DHT22;32845;59.422;17.930;2023-07-02T13:39:38;16.90;99.90
44695;DHT22;32845;59.422;17.930;2023-07-02T13:44:23;16.90;99.90
44695;DHT22;32845;59.422;17.930;2023-07-02T13:48:54;16.90;99.90
44695;DHT22;32845;59.422;17.930;2023-07-02T13:53:25;17.00;99.90
44695;DHT22;32845;59.422;17.930;2023-07-02T13:57:55;17.10;99.90
44695;DHT22;32845;59.422;17.930;2023-07-02T14:02:32;17.10;99.90
44695;DHT22;32845;59.422;17.930;2023-07-02T14:07:03;17.20;99.90
44695;DHT22;32845;59.422;17.930;2023-07-02T14:11:37;17.20;99.90
44695;DHT22;32845;59.422;17.930;2023-07-02T14:16:07;17.20;99.90
44695;DHT22;32845;59.422;17.930;2023-07-02T14:20:45;17.10;99.90
44695;DHT22;32845;59.422;17.930;2023-07-02T14:25:15;17.00;99.90
44695;DHT22;32845;59.422;17.930;2023-07-02T14:29:46;17.00;99.90
44695;DHT22;32845;59.422;17.930;2023-07-02T14:34:29;16.90;99.90
44695;DHT22;32845;59.422;17.930;2023-07-02T14:39:00;16.90;99.90
44695;DHT22;32845;59.422;17.930;2023-07-02T14:43:31;16.90;99.90
44695;DHT22;32845;59.422;17.930;2023-07-02T14:48:01;16.70;99.90
44695;DHT22;32845;59.422;17.930;2023-07-02T14:52:32;16.60;99.90
44695;DHT22;32845;59.422;17.930;2023-07-02T14:57:02;16.50;99.90
44695;DHT22;32845;59.422;17.930;2023-07-02T15:01:33;16.40;99.90
44695;DHT22;32845;59.422;17.930;2023-07-02T15:06:16;16.40;99.90
44695;DHT22;32845;59.422;17.930;2023-07-02T15:10:53;16.30;99.90
44695;DHT22;32845;59.422;17.930;2023-07-02T15:15:23;16.30;99.90
44695;DHT22;32845;59.422;17.930;2023-07-02T15:19:54;16.30;99.90
44695;DHT22;32845;59.422;17.930;2023-07-02T15:24:25;16.30;99.90
44695;DHT22;32845;59.422;17.930;2023-07-02T15:28:55;16.20;99.90
44695;DHT22;32845;59.422;17.930;2023-07-02T15:33:26;16.20;99.90
44695;DHT22;32845;59.422;17.930;2023-07-02T15:37:57;16.20;99.90
44695;DHT22;32845;59.422;17.930;2023-07-02T15:42:47;16.10;99.90
44695;DHT22;32845;59.422;17.930;2023-07-02T15:47:18;16.10;99.90
44695;DHT22;32845;59.422;17.930;2023-07-02T15:52:08;16.10;99.90
44695;DHT22;32845;59.422;17.930;2023-07-02T15:56:38;16.10;99.90
44695;DHT22;32845;59.422;17.930;2023-07-02T16:01:21;16.10;99.90
44695;DHT22;32845;59.422;17.930;2023-07-02T16:05:56;16.10;99.90
44695;DHT22;32845;59.422;17.930;2023-07-02T16:10:32;16.00;99.90
44695;DHT22;32845;59.422;17.930;2023-07-02T16:15:03;16.00;99.90
44695;DHT22;32845;59.422;17.930;2023-07-02T16:19:34;16.00;99.90
44695;DHT22;32845;59.422;17.930;2023-07-02T16:24:19;16.00;99.90
44695;DHT22;32845;59.422;17.930;2023-07-02T16:28:50;16.00;99.90
44695;DHT22;32845;59.422;17.930;2023-07-02T16:33:21;16.00;99.90
44695;DHT22;32845;59.422;17.930;2023-07-02T16:37:51;16.00;99.90
44695;DHT22;32845;59.422;17.930;2023-07-02T16:42:27;15.90;99.90
44695;DHT22;32845;59.422;17.930;2023-07-02T16:46:57;15.90;99.90
44695;DHT22;32845;59.422;17.930;2023-07-02T16:51:33;15.90;99.90
44695;DHT22;32845;59.422;17.930;2023-07-02T16:56:05;15.80;99.90
44695;DHT22;32845;59.422;17.930;2023-07-02T17:00:41;15.80;99.90
44695;DHT22;32845;59.422;17.930;2023-07-02T17:05:11;15.80;99.90
44695;DHT22;32845;59.422;17.930;2023-07-02T17:09:42;15.80;99.90
44695;DHT22;32845;59.422;17.930;2023-07-02T17:14:22;15.80;99.90
44695;DHT22;32845;59.422;17.930;2023-07-02T17:18:53;15.80;99.90
44695;DHT22;32845;59.422;17.930;2023-07-02T17:23:38;15.80;99.90
44695;DHT22;32845;59.422;17.930;2023-07-02T17:28:09;15.80;99.90
44695;DHT22;32845;59.422;17.930;2023-07-02T17:32:40;15.80;99.90
44695;DHT22;32845;59.422;17.930;2023-07-02T17:37:11;15.80;99.90
44695;DHT22;32845;59.422;17.930;2023-07-02T17:41:53;15.80;99.90
44695;DHT22;32845;59.422;17.930;2023-07-02T17:46:24;15.70;99.90
44695;DHT22;32845;59.422;17.930;2023-07-02T17:50:59;15.70;99.90
44695;DHT22;32845;59.422;17.930;2023-07-02T17:55:29;15.70;99.90
44695;DHT22;32845;59.422;17.930;2023-07-02T18:00:00;15.70;99.90
44695;DHT22;32845;59.422;17.930;2023-07-02T18:04:30;15.70;99.90
44695;DHT22;32845;59.422;17.930;2023-07-02T18:09:02;15.60;99.90
44695;DHT22;32845;59.422;17.930;2023-07-02T18:13:40;15.70;99.90
44695;DHT22;32845;59.422;17.930;2023-07-02T18:18:10;15.60;99.90
44695;DHT22;32845;59.422;17.930;2023-07-02T18:22:51;15.60;99.90
44695;DHT22;32845;59.422;17.930;2023-07-02T18:27:22;15.60;99.90
44695;DHT22;32845;59.422;17.930;2023-07-02T18:32:02;15.60;99.90
44695;DHT22;32845;59.422;17.930;2023-07-02T18:36:35;15.60;99.90
44695;DHT22;32845;59.422;17.930;2023-07-02T18:41:17;15.60;99.90
44695;DHT22;32845;59.422;17.930;2023-07-02T18:45:51;15.60;99.90
44695;DHT22;32845;59.422;17.930;2023-07-02T18:50:42;15.60;99.90
44695;DHT22;32845;59.422;17.930;2023-07-02T18:55:13;15.60;99.90
44695;DHT22;32845;59.422;17.930;2023-07-02T18:59:47;15.60;99.90
44695;DHT22;32845;59.422;17.930;2023-07-02T19:04:18;15.60;99.90
44695;DHT22;32845;59.422;17.930;2023-07-02T19:08:48;15.60;99.90
44695;DHT22;32845;59.422;17.930;2023-07-02T19:13:19;15.60;99.90
44695;DHT22;32845;59.422;17.930;2023-07-02T19:17:49;15.50;99.90
44695;DHT22;32845;59.422;17.930;2023-07-02T19:22:25;15.50;99.90
44695;DHT22;32845;59.422;17.930;2023-07-02T19:26:56;15.50;99.90
44695;DHT22;32845;59.422;17.930;2023-07-02T19:31:26;15.50;99.90
44695;DHT22;32845;59.422;17.930;2023-07-02T19:35:57;15.50;99.90
44695;DHT22;32845;59.422;17.930;2023-07-02T19:40:36;15.40;99.90
44695;DHT22;32845;59.422;17.930;2023-07-02T19:45:07;15.30;99.90
44695;DHT22;32845;59.422;17.930;2023-07-02T19:49:38;15.30;99.90
44695;DHT22;32845;59.422;17.930;2023-07-02T19:54:16;15.20;99.90
44695;DHT22;32845;59.422;17.930;2023-07-02T19:58:48;15.20;99.90
44695;DHT22;32845;59.422;17.930;2023-07-02T20:03:19;15.20;99.90
44695;DHT22;32845;59.422;17.930;2023-07-02T20:07:50;15.20;99.90
44695;DHT22;32845;59.422;17.930;2023-07-02T20:12:25;15.20;99.90
44695;DHT22;32845;59.422;17.930;2023-07-02T20:16:59;15.10;99.90
44695;DHT22;32845;59.422;17.930;2023-07-02T20:21:38;15.20;99.90
44695;DHT22;32845;59.422;17.930;2023-07-02T20:26:16;15.20;99.90
44695;DHT22;32845;59.422;17.930;2023-07-02T20:30:47;15.10;99.90
44695;DHT22;32845;59.422;17.930;2023-07-02T20:35:17;15.10;99.90
44695;DHT22;32845;59.422;17.930;2023-07-02T20:39:49;15.10;99.90
44695;DHT22;32845;59.422;17.930;2023-07-02T20:44:26;15.10;99.90
44695;DHT22;32845;59.422;17.930;2023-07-02T20:48:57;15.10;99.90
44695;DHT22;32845;59.422;17.930;2023-07-02T20:53:28;15.10;99.90
44695;DHT22;32845;59.422;17.930;2023-07-02T20:57:58;15.10;99.90
44695;DHT22;32845;59.422;17.930;2023-07-02T21:02:41;15.10;99.90
44695;DHT22;32845;59.422;17.930;2023-07-02T21:07:12;15.00;99.90
44695;DHT22;32845;59.422;17.930;2023-07-02T21:12:02;15.00;99.90
44695;DHT22;32845;59.422;17.930;2023-07-02T21:16:33;14.90;99.90
44695;DHT22;32845;59.422;17.930;2023-07-02T21:21:07;14.90;99.90
44695;DHT22;32845;59.422;17.930;2023-07-02T21:25:38;14.80;99.90
44695;DHT22;32845;59.422;17.930;2023-07-02T21:30:09;14.80;99.90
44695;DHT22;32845;59.422;17.930;2023-07-02T21:34:40;14.70;99.90
44695;DHT22;32845;59.422;17.930;2023-07-02T21:39:12;14.70;99.90
44695;DHT22;32845;59.422;17.930;2023-07-02T21:43:43;14.70;99.90
44695;DHT22;32845;59.422;17.930;2023-07-02T21:48:14;14.70;99.90
44695;DHT22;32845;59.422;17.930;2023-07-02T21:52:50;14.60;99.90
44695;DHT22;32845;59.422;17.930;2023-07-02T21:57:20;14.60;99.90
44695;DHT22;32845;59.422;17.930;2023-07-02T22:02:06;14.60;99.90
44695;DHT22;32845;59.422;17.930;2023-07-02T22:06:36;14.50;99.90
44695;DHT22;32845;59.422;17.930;2023-07-02T22:11:16;14.50;99.90
44695;DHT22;32845;59.422;17.930;2023-07-02T22:15:47;14.50;99.90
44695;DHT22;32845;59.422;17.930;2023-07-02T22:20:18;14.50;99.90
44695;DHT22;32845;59.422;17.930;2023-07-02T22:24:49;14.40;99.90
44695;DHT22;32845;59.422;17.930;2023-07-02T22:29:20;14.40;99.90
44695;DHT22;32845;59.422;17.930;2023-07-02T22:33:55;14.40;99.90
44695;DHT22;32845;59.422;17.930;2023-07-02T22:38:26;14.30;99.90
44695;DHT22;32845;59.422;17.930;2023-07-02T22:42:57;14.30;99.90
44695;DHT22;32845;59.422;17.930;2023-07-02T22:47:27;14.30;99.90
44695;DHT22;32845;59.422;17.930;2023-07-02T22:51:59;14.30;99.90
44695;DHT22;32845;59.422;17.930;2023-07-02T22:56:30;14.30;99.90
44695;DHT22;32845;59.422;17.930;2023-07-02T23:01:06;14.30;99.90
44695;DHT22;32845;59.422;17.930;2023-07-02T23:05:37;14.40;99.90
44695;DHT22;32845;59.422;17.930;2023-07-02T23:10:07;14.40;99.90
44695;DHT22;32845;59.422;17.930;2023-07-02T23:14:43;14.40;99.90
44695;DHT22;32845;59.422;17.930;2023-07-02T23:19:13;14.40;99.90
44695;DHT22;32845;59.422;17.930;2023-07-02T23:23:54;14.40;99.90
44695;DHT22;32845;59.422;17.930;2023-07-02T23:28:28;14.40;99.90
44695;DHT22;32845;59.422;17.930;2023-07-02T23:33:01;14.30;99.90
44695;DHT22;32845;59.422;17.930;2023-07-02T23:37:40;14.30;99.90
44695;DHT22;32845;59.422;17.930;2023-07-02T23:42:15;14.20;99.90
44695;DHT22;32845;59.422;17.930;2023-07-02T23:46:45;14.10;99.90
44695;DHT22;32845;59.422;17.930;2023-07-02T23:51:16;14.10;99.90
44695;DHT22;32845;59.422;17.930;2023-07-02T23:55:48;14.00;99.90
